Time;durP1;ratioP1;P1;durP2;ratioP2;P2;SDS_P1;SDS_P2;PMS_P1;PMS_P2;Temp;Humidity;BMP_temperature;BMP_pressure;BME280_temperature;BME280_humidity;BME280_pressure;Samples;Min_cycle;Max_cycle;Signal;HPM_P1;HPM_P2
2023/05/01 00:00:49;;;;;;;2.40;2.30;;;;;;;;;;5067167;28;20948;-65
2023/05/01 00:03:18;;;;;;;2.60;2.60;;;;;;;;;;5072178;28;20445;-67
2023/05/01 00:05:45;;;;;;;2.87;2.70;;;;;;;;;;5072145;28;20413;-66
2023/05/01 00:08:11;;;;;;;3.00;2.90;;;;;;;;;;5072476;28;20417;-65
2023/05/01 00:10:37;;;;;;;3.10;3.00;;;;;;;;;;5069472;28;20495;-66
2023/05/01 00:13:03;;;;;;;2.00;2.00;;;;;;;;;;5072386;28;20421;-65
2023/05/01 00:15:30;;;;;;;1.50;1.50;;;;;;;;;;5069960;28;20433;-64
2023/05/01 00:17:56;;;;;;;3.00;2.40;;;;;;;;;;5071938;28;20414;-67
2023/05/01 00:20:22;;;;;;;8.13;2.30;;;;;;;;;;5071613;28;20978;-66
2023/05/01 00:22:48;;;;;;;2.53;2.53;;;;;;;;;;5072176;28;20470;-65
2023/05/01 00:25:14;;;;;;;2.90;2.80;;;;;;;;;;5068588;28;20527;-66
2023/05/01 00:27:40;;;;;;;2.67;2.53;;;;;;;;;;5072054;28;20465;-65
2023/05/01 00:30:06;;;;;;;2.50;2.40;;;;;;;;;;5067288;28;20456;-66
2023/05/01 00:32:33;;;;;;;6.40;2.43;;;;;;;;;;5071887;28;20504;-66
2023/05/01 00:34:59;;;;;;;2.20;2.10;;;;;;;;;;5069736;28;20444;-66
2023/05/01 00:37:25;;;;;;;2.23;2.13;;;;;;;;;;5071724;28;20413;-65
2023/05/01 00:39:51;;;;;;;1.90;1.80;;;;;;;;;;5069343;28;21988;-65
2023/05/01 00:42:17;;;;;;;2.10;2.00;;;;;;;;;;5071947;28;20406;-65
2023/05/01 00:44:43;;;;;;;2.73;2.63;;;;;;;;;;5066060;28;20838;-65
2023/05/01 00:47:09;;;;;;;2.93;2.57;;;;;;;;;;5067931;28;20481;-66
2023/05/01 00:49:35;;;;;;;1.80;1.80;;;;;;;;;;5067748;28;20525;-65
2023/05/01 00:52:01;;;;;;;6.10;5.03;;;;;;;;;;5066394;28;20521;-65
2023/05/01 00:54:27;;;;;;;2.30;2.20;;;;;;;;;;5067757;28;20506;-65
2023/05/01 00:56:54;;;;;;;2.93;2.83;;;;;;;;;;5071314;28;20935;-65
2023/05/01 00:59:20;;;;;;;6.00;2.77;;;;;;;;;;5068870;28;20518;-66
2023/05/01 01:01:46;;;;;;;3.03;2.83;;;;;;;;;;5063248;28;20441;-66
2023/05/01 01:04:12;;;;;;;2.57;2.47;;;;;;;;;;5071434;28;20463;-67
2023/05/01 01:06:42;;;;;;;2.53;2.43;;;;;;;;;;5070558;28;20473;-64
2023/05/01 01:09:28;;;;;;;2.77;2.67;;;;;;;;;;5070888;28;21646;-65
2023/05/01 01:12:12;;;;;;;2.30;2.30;;;;;;;;;;5069491;28;20913;-65
2023/05/01 01:14:41;;;;;;;2.80;2.70;;;;;;;;;;5070565;28;20425;-65
2023/05/01 01:17:07;;;;;;;4.73;3.00;;;;;;;;;;5070766;28;20414;-65
2023/05/01 01:19:33;;;;;;;5.33;2.37;;;;;;;;;;5067861;28;20438;-65
2023/05/01 01:22:04;;;;;;;2.60;2.50;;;;;;;;;;5069173;28;20524;-66
2023/05/01 01:25:05;;;;;;;2.53;2.43;;;;;;;;;;5066993;28;20571;-67
2023/05/01 01:27:36;;;;;;;2.70;2.70;;;;;;;;;;5056598;28;20488;-66
2023/05/01 01:30:02;;;;;;;2.60;2.50;;;;;;;;;;5070287;28;20421;-66
2023/05/01 01:32:41;;;;;;;2.33;2.33;;;;;;;;;;5068555;28;20800;-66
2023/05/01 01:35:12;;;;;;;8.77;2.77;;;;;;;;;;5069535;28;20483;-66
2023/05/01 01:37:43;;;;;;;2.63;2.57;;;;;;;;;;5068810;28;20444;-65
2023/05/01 01:40:09;;;;;;;2.70;2.63;;;;;;;;;;5068813;28;20441;-67
2023/05/01 01:43:04;;;;;;;2.77;2.77;;;;;;;;;;5068413;28;20446;-67
2023/05/01 01:45:34;;;;;;;3.27;3.20;;;;;;;;;;5064918;28;20916;-65
2023/05/01 01:48:02;;;;;;;3.50;3.40;;;;;;;;;;5069674;28;20864;-66
2023/05/01 01:50:28;;;;;;;2.83;2.73;;;;;;;;;;5068569;28;20524;-65
2023/05/01 01:52:55;;;;;;;4.17;3.23;;;;;;;;;;5070233;28;20871;-65
2023/05/01 01:55:22;;;;;;;2.97;2.83;;;;;;;;;;5070342;28;20468;-65
2023/05/01 01:57:49;;;;;;;3.67;3.00;;;;;;;;;;5070486;28;20475;-66
2023/05/01 02:00:16;;;;;;;3.20;3.10;;;;;;;;;;5069675;28;20428;-68
2023/05/01 02:02:43;;;;;;;3.70;3.50;;;;;;;;;;5069905;28;20421;-65
2023/05/01 02:05:11;;;;;;;5.70;3.50;;;;;;;;;;5069446;28;20438;-65
2023/05/01 02:07:38;;;;;;;3.10;3.00;;;;;;;;;;5070073;28;20489;-67
2023/05/01 02:10:04;;;;;;;3.70;3.40;;;;;;;;;;5069650;28;20504;-66
2023/05/01 02:12:31;;;;;;;3.07;2.97;;;;;;;;;;5069551;28;20750;-65
2023/05/01 02:14:58;;;;;;;3.30;3.20;;;;;;;;;;5069956;28;20418;-66
2023/05/01 02:17:26;;;;;;;3.53;3.50;;;;;;;;;;5069318;28;20829;-65
2023/05/01 02:19:53;;;;;;;2.67;2.67;;;;;;;;;;5069632;28;20456;-67
2023/05/01 02:22:20;;;;;;;4.97;2.80;;;;;;;;;;5070065;28;20642;-66
2023/05/01 02:24:46;;;;;;;3.40;3.20;;;;;;;;;;5068700;28;20421;-65
2023/05/01 02:27:20;;;;;;;3.10;2.90;;;;;;;;;;5069905;28;20577;-65
2023/05/01 02:29:46;;;;;;;3.30;3.20;;;;;;;;;;5069675;28;20421;-67
2023/05/01 02:32:12;;;;;;;3.40;3.30;;;;;;;;;;5068291;28;20792;-66
2023/05/01 02:34:38;;;;;;;4.50;4.40;;;;;;;;;;5069880;28;20421;-66
2023/05/01 02:37:06;;;;;;;4.00;3.67;;;;;;;;;;5069721;28;20432;-66
2023/05/01 02:39:32;;;;;;;3.20;3.10;;;;;;;;;;5069118;28;20414;-65
2023/05/01 02:41:58;;;;;;;4.33;4.10;;;;;;;;;;5069721;28;20571;-67
2023/05/01 02:44:25;;;;;;;6.50;3.83;;;;;;;;;;5069460;28;20434;-66
2023/05/01 02:46:53;;;;;;;4.13;4.03;;;;;;;;;;5069170;28;20489;-66
2023/05/01 02:49:20;;;;;;;3.27;3.07;;;;;;;;;;5069265;28;20434;-65
2023/05/01 02:51:46;;;;;;;4.73;4.40;;;;;;;;;;5069562;28;20478;-66
2023/05/01 02:54:12;;;;;;;4.00;3.80;;;;;;;;;;5069692;28;20829;-67
2023/05/01 02:56:38;;;;;;;4.93;3.27;;;;;;;;;;5069535;28;20512;-66
2023/05/01 02:59:04;;;;;;;3.37;3.27;;;;;;;;;;5068843;28;20928;-65
2023/05/01 03:01:31;;;;;;;4.47;4.33;;;;;;;;;;5068999;28;20583;-66
2023/05/01 03:03:57;;;;;;;3.57;3.47;;;;;;;;;;5069528;28;20421;-65
2023/05/01 03:06:23;;;;;;;4.27;4.07;;;;;;;;;;5068648;28;20965;-65
2023/05/01 03:08:48;;;;;;;4.23;3.80;;;;;;;;;;5069101;28;20424;-65
2023/05/01 03:11:15;;;;;;;4.53;3.60;;;;;;;;;;5069137;28;20512;-66
2023/05/01 03:13:41;;;;;;;4.83;4.50;;;;;;;;;;5065716;28;20506;-65
2023/05/01 03:16:07;;;;;;;3.60;3.50;;;;;;;;;;5065515;28;20870;-66
2023/05/01 03:18:33;;;;;;;4.20;3.63;;;;;;;;;;5068012;28;20414;-65
2023/05/01 03:20:59;;;;;;;4.93;4.57;;;;;;;;;;5068736;28;20421;-65
2023/05/01 03:23:26;;;;;;;3.50;3.30;;;;;;;;;;5067221;28;20464;-65
2023/05/01 03:25:53;;;;;;;3.20;3.10;;;;;;;;;;5068651;28;20425;-65
2023/05/01 03:28:22;;;;;;;5.43;4.47;;;;;;;;;;5066400;28;20933;-65
2023/05/01 03:30:49;;;;;;;3.30;3.13;;;;;;;;;;5068787;28;20440;-66
2023/05/01 03:33:15;;;;;;;3.87;3.77;;;;;;;;;;5067635;28;20445;-67
2023/05/01 03:35:41;;;;;;;4.00;3.90;;;;;;;;;;5067839;28;20433;-65
2023/05/01 03:38:07;;;;;;;3.53;3.43;;;;;;;;;;5069231;28;20432;-65
2023/05/01 03:40:34;;;;;;;3.50;3.40;;;;;;;;;;5067336;28;20410;-68
2023/05/01 03:43:00;;;;;;;4.07;3.93;;;;;;;;;;5069397;28;20429;-67
2023/05/01 03:45:26;;;;;;;3.80;3.70;;;;;;;;;;5068734;28;20468;-66
2023/05/01 03:47:52;;;;;;;3.50;3.30;;;;;;;;;;5068868;28;20481;-67
2023/05/01 03:50:18;;;;;;;3.77;3.67;;;;;;;;;;5068657;28;20413;-67
2023/05/01 03:52:44;;;;;;;3.97;3.60;;;;;;;;;;5067434;28;20458;-65
2023/05/01 03:55:10;;;;;;;4.13;4.00;;;;;;;;;;5068564;28;20421;-65
2023/05/01 03:57:36;;;;;;;3.43;3.43;;;;;;;;;;5066437;28;21010;-65
2023/05/01 04:00:04;;;;;;;5.03;3.47;;;;;;;;;;5068470;28;20445;-66
2023/05/01 04:02:30;;;;;;;4.23;4.00;;;;;;;;;;5068790;28;20428;-65
2023/05/01 04:04:56;;;;;;;4.33;4.00;;;;;;;;;;5067052;28;20446;-66
2023/05/01 04:07:22;;;;;;;4.17;3.90;;;;;;;;;;5068776;28;20853;-66
2023/05/01 04:09:48;;;;;;;4.47;4.23;;;;;;;;;;5069030;28;20410;-65
2023/05/01 04:12:14;;;;;;;4.37;4.00;;;;;;;;;;5070622;28;20441;-66
2023/05/01 04:14:42;;;;;;;4.07;3.80;;;;;;;;;;5069565;28;20524;-66
2023/05/01 04:17:08;;;;;;;4.20;3.90;;;;;;;;;;5070135;28;20445;-66
2023/05/01 04:19:34;;;;;;;3.50;3.40;;;;;;;;;;5071757;28;20444;-66
2023/05/01 04:22:00;;;;;;;3.47;3.37;;;;;;;;;;5071311;28;20842;-66
2023/05/01 04:24:26;;;;;;;3.80;3.70;;;;;;;;;;5066649;28;20449;-66
2023/05/01 04:26:52;;;;;;;6.57;4.10;;;;;;;;;;5066138;28;20557;-65
2023/05/01 04:29:18;;;;;;;4.67;4.37;;;;;;;;;;5070221;28;20460;-66
2023/05/01 04:31:44;;;;;;;4.83;4.50;;;;;;;;;;5070269;28;20536;-65
2023/05/01 04:34:10;;;;;;;5.23;3.93;;;;;;;;;;5072036;28;20426;-67
2023/05/01 04:36:35;;;;;;;5.00;4.50;;;;;;;;;;5070902;28;20433;-66
2023/05/01 04:39:02;;;;;;;5.73;4.37;;;;;;;;;;5070037;28;20437;-66
2023/05/01 04:41:28;;;;;;;5.40;4.17;;;;;;;;;;5070430;28;20556;-65
2023/05/01 04:43:54;;;;;;;4.60;4.30;;;;;;;;;;5070641;28;20505;-66
2023/05/01 04:46:20;;;;;;;4.40;4.17;;;;;;;;;;5069295;28;20488;-66
2023/05/01 04:48:46;;;;;;;7.00;3.87;;;;;;;;;;5071679;28;20425;-65
2023/05/01 04:51:12;;;;;;;3.80;3.70;;;;;;;;;;5071655;28;20943;-66
2023/05/01 04:53:38;;;;;;;4.27;4.17;;;;;;;;;;5070519;28;20560;-66
2023/05/01 04:56:04;;;;;;;4.70;3.67;;;;;;;;;;5069720;28;20529;-65
2023/05/01 04:58:30;;;;;;;3.80;3.70;;;;;;;;;;5071498;28;20494;-65
2023/05/01 05:00:56;;;;;;;3.80;3.70;;;;;;;;;;5070355;28;20413;-66
2023/05/01 05:03:22;;;;;;;3.63;3.50;;;;;;;;;;5070413;28;20420;-65
2023/05/01 05:05:48;;;;;;;3.67;3.57;;;;;;;;;;5070529;28;20447;-65
2023/05/01 05:08:14;;;;;;;3.83;3.70;;;;;;;;;;5069411;28;20464;-65
2023/05/01 05:10:40;;;;;;;4.27;4.07;;;;;;;;;;5070357;28;20530;-65
2023/05/01 05:13:06;;;;;;;3.77;3.77;;;;;;;;;;5071515;28;20421;-65
2023/05/01 05:15:31;;;;;;;4.57;4.33;;;;;;;;;;5071368;28;20774;-65
2023/05/01 05:17:57;;;;;;;3.90;3.70;;;;;;;;;;5069899;28;20433;-65
2023/05/01 05:20:23;;;;;;;4.27;4.07;;;;;;;;;;5069365;28;20468;-65
2023/05/01 05:22:50;;;;;;;4.23;3.93;;;;;;;;;;5071333;28;20440;-65
2023/05/01 05:25:16;;;;;;;4.03;3.93;;;;;;;;;;5069979;28;20414;-67
2023/05/01 05:27:41;;;;;;;5.47;4.50;;;;;;;;;;5069204;28;20523;-65
2023/05/01 05:30:08;;;;;;;4.00;3.90;;;;;;;;;;5070536;28;20441;-69
2023/05/01 05:32:34;;;;;;;4.13;3.93;;;;;;;;;;5070722;28;20492;-72
2023/05/01 05:35:00;;;;;;;5.10;4.80;;;;;;;;;;5069555;28;20532;-66
2023/05/01 05:37:26;;;;;;;4.37;4.13;;;;;;;;;;5069502;28;20426;-66
2023/05/01 05:39:53;;;;;;;3.87;3.60;;;;;;;;;;5070393;28;20452;-66
2023/05/01 05:42:19;;;;;;;3.53;3.30;;;;;;;;;;5070315;28;20423;-64
2023/05/01 05:44:45;;;;;;;7.20;4.10;;;;;;;;;;5062383;28;20484;-66
2023/05/01 05:47:11;;;;;;;4.17;4.07;;;;;;;;;;5066731;28;20989;-67
2023/05/01 05:49:37;;;;;;;7.27;5.00;;;;;;;;;;5066538;28;20853;-65
2023/05/01 05:52:03;;;;;;;10.73;4.03;;;;;;;;;;5069979;28;20800;-67
2023/05/01 05:54:29;;;;;;;5.13;4.87;;;;;;;;;;5069080;28;20479;-65
2023/05/01 05:56:55;;;;;;;3.30;3.20;;;;;;;;;;5066461;28;20528;-65
2023/05/01 05:59:21;;;;;;;4.63;3.93;;;;;;;;;;5069662;28;20435;-68
2023/05/01 06:01:47;;;;;;;4.00;3.80;;;;;;;;;;5068419;28;20425;-66
2023/05/01 06:04:14;;;;;;;3.60;3.60;;;;;;;;;;5069972;28;20445;-67
2023/05/01 06:06:39;;;;;;;4.50;4.27;;;;;;;;;;5065714;28;20469;-69
2023/05/01 06:09:07;;;;;;;4.10;3.90;;;;;;;;;;5066021;28;20438;-71
2023/05/01 06:11:33;;;;;;;4.67;4.27;;;;;;;;;;5063960;28;20474;-68
2023/05/01 06:14:01;;;;;;;4.30;4.13;;;;;;;;;;5067770;28;20450;-65
2023/05/01 06:16:27;;;;;;;4.43;4.33;;;;;;;;;;5062624;28;20439;-68
2023/05/01 06:18:53;;;;;;;4.50;4.30;;;;;;;;;;5065927;28;20477;-68
2023/05/01 06:21:19;;;;;;;4.83;4.50;;;;;;;;;;5065262;28;20526;-65
2023/05/01 06:23:45;;;;;;;4.50;4.40;;;;;;;;;;5068082;28;20440;-65
2023/05/01 06:26:11;;;;;;;4.40;4.20;;;;;;;;;;5069228;28;20949;-66
2023/05/01 06:28:37;;;;;;;4.50;4.30;;;;;;;;;;5069689;28;20445;-67
2023/05/01 06:31:04;;;;;;;4.17;4.03;;;;;;;;;;5061485;28;20478;-65
2023/05/01 06:33:30;;;;;;;4.67;4.40;;;;;;;;;;5066134;28;20560;-68
2023/05/01 06:35:58;;;;;;;4.70;4.53;;;;;;;;;;5054501;28;20528;-68
2023/05/01 06:38:24;;;;;;;4.53;4.33;;;;;;;;;;5064308;28;20458;-65
2023/05/01 06:40:50;;;;;;;5.17;4.90;;;;;;;;;;5061640;28;20450;-67
2023/05/01 06:43:16;;;;;;;5.27;5.00;;;;;;;;;;5062918;28;20449;-69
2023/05/01 06:45:42;;;;;;;6.33;4.83;;;;;;;;;;5063685;28;20476;-70
2023/05/01 06:48:08;;;;;;;5.40;5.20;;;;;;;;;;5061984;28;20485;-71
2023/05/01 06:50:34;;;;;;;4.70;4.60;;;;;;;;;;5062694;28;20445;-72
2023/05/01 06:53:01;;;;;;;4.50;4.40;;;;;;;;;;5067501;28;20528;-69
2023/05/01 06:55:30;;;;;;;5.63;5.00;;;;;;;;;;5066501;28;20448;-68
2023/05/01 06:57:56;;;;;;;5.10;4.80;;;;;;;;;;5066320;28;20991;-67
2023/05/01 07:00:22;;;;;;;4.83;4.73;;;;;;;;;;5061126;28;20457;-66
2023/05/01 07:02:48;;;;;;;5.10;4.80;;;;;;;;;;5061095;28;20445;-68
2023/05/01 07:05:14;;;;;;;5.53;5.00;;;;;;;;;;5068110;28;20512;-71
2023/05/01 07:07:40;;;;;;;6.53;5.63;;;;;;;;;;5067486;28;20534;-69
2023/05/01 07:10:06;;;;;;;5.57;5.00;;;;;;;;;;5067202;28;20512;-70
2023/05/01 07:12:32;;;;;;;5.20;5.00;;;;;;;;;;5067223;28;20446;-71
2023/05/01 07:14:58;;;;;;;5.60;5.23;;;;;;;;;;5069170;28;20495;-69
2023/05/01 07:17:25;;;;;;;5.60;5.20;;;;;;;;;;5068680;28;20504;-70
2023/05/01 07:19:51;;;;;;;5.30;5.00;;;;;;;;;;5067937;28;20421;-70
2023/05/01 07:22:17;;;;;;;6.40;5.93;;;;;;;;;;5068746;28;21008;-72
2023/05/01 07:24:43;;;;;;;5.17;4.83;;;;;;;;;;5068744;28;20418;-70
2023/05/01 07:27:09;;;;;;;6.17;5.73;;;;;;;;;;5067404;28;20493;-74
2023/05/01 07:29:35;;;;;;;4.87;4.67;;;;;;;;;;5068308;28;20421;-69
2023/05/01 07:32:01;;;;;;;4.80;4.60;;;;;;;;;;5068257;28;20864;-67
2023/05/01 07:34:27;;;;;;;5.77;5.33;;;;;;;;;;5068396;28;20437;-72
2023/05/01 07:36:53;;;;;;;5.90;5.50;;;;;;;;;;5066696;28;20472;-67
2023/05/01 07:39:19;;;;;;;9.30;6.80;;;;;;;;;;5064076;28;20855;-68
2023/05/01 07:41:46;;;;;;;5.77;5.27;;;;;;;;;;5068880;28;20921;-71
2023/05/01 07:44:12;;;;;;;5.77;5.30;;;;;;;;;;5065422;28;20421;-72
2023/05/01 07:46:37;;;;;;;5.50;5.00;;;;;;;;;;5069914;28;20595;-67
2023/05/01 07:49:04;;;;;;;5.53;5.23;;;;;;;;;;5070838;28;20436;-68
2023/05/01 07:51:30;;;;;;;7.90;5.43;;;;;;;;;;5070284;28;20441;-67
2023/05/01 07:53:56;;;;;;;6.00;5.60;;;;;;;;;;5058621;28;20449;-66
2023/05/01 07:56:22;;;;;;;6.23;5.83;;;;;;;;;;5070965;28;20417;-67
2023/05/01 07:58:48;;;;;;;5.80;5.50;;;;;;;;;;5068626;28;20929;-68
2023/05/01 08:01:14;;;;;;;5.97;5.67;;;;;;;;;;5069914;28;20508;-71
2023/05/01 08:03:40;;;;;;;4.80;4.53;;;;;;;;;;5069586;28;20511;-67
2023/05/01 08:06:06;;;;;;;4.70;4.40;;;;;;;;;;5070535;28;20506;-69
2023/05/01 08:08:32;;;;;;;5.07;4.73;;;;;;;;;;5071606;28;20429;-69
2023/05/01 08:10:58;;;;;;;3.97;3.87;;;;;;;;;;5070551;28;20421;-74
2023/05/01 08:13:24;;;;;;;4.63;4.43;;;;;;;;;;5063406;28;20448;-67
2023/05/01 08:15:51;;;;;;;4.10;3.90;;;;;;;;;;5069724;28;20426;-68
2023/05/01 08:18:20;;;;;;;4.73;4.43;;;;;;;;;;5071058;28;20422;-69
2023/05/01 08:20:49;;;;;;;4.83;4.63;;;;;;;;;;5070633;28;20409;-69
2023/05/01 08:23:16;;;;;;;3.93;3.83;;;;;;;;;;5071775;28;20439;-72
2023/05/01 08:25:42;;;;;;;3.90;3.80;;;;;;;;;;5071227;28;20425;-70
2023/05/01 08:28:08;;;;;;;4.10;3.73;;;;;;;;;;5071358;28;20516;-68
2023/05/01 08:30:34;;;;;;;3.77;3.63;;;;;;;;;;5069371;28;20465;-67
2023/05/01 08:33:00;;;;;;;3.47;3.40;;;;;;;;;;5071110;28;20847;-69
2023/05/01 08:35:26;;;;;;;4.00;3.90;;;;;;;;;;5070216;28;20932;-72
2023/05/01 08:37:52;;;;;;;3.07;2.97;;;;;;;;;;5068796;28;20783;-69
2023/05/01 08:40:20;;;;;;;3.57;3.50;;;;;;;;;;5060898;28;20433;-70
2023/05/01 08:42:47;;;;;;;3.40;3.30;;;;;;;;;;5058422;28;20785;-66
2023/05/01 08:45:15;;;;;;;2.60;2.60;;;;;;;;;;5067713;28;20572;-72
2023/05/01 08:47:42;;;;;;;3.03;2.90;;;;;;;;;;5067375;28;20535;-68
2023/05/01 08:50:11;;;;;;;2.43;2.40;;;;;;;;;;5068503;28;20429;-70
2023/05/01 08:52:42;;;;;;;2.93;2.93;;;;;;;;;;5068311;28;20512;-68
2023/05/01 08:55:12;;;;;;;2.80;2.80;;;;;;;;;;5064772;28;20465;-73
2023/05/01 08:57:39;;;;;;;2.07;2.07;;;;;;;;;;5061130;28;20802;-67
2023/05/01 09:00:06;;;;;;;2.70;2.50;;;;;;;;;;5067123;28;20509;-70
2023/05/01 09:02:34;;;;;;;2.40;2.30;;;;;;;;;;5070546;28;20453;-68
2023/05/01 09:05:02;;;;;;;2.53;2.43;;;;;;;;;;5069294;28;20460;-67
2023/05/01 09:07:29;;;;;;;5.13;2.77;;;;;;;;;;5070660;28;20816;-68
2023/05/01 09:09:55;;;;;;;2.40;2.40;;;;;;;;;;5070239;28;20422;-71
2023/05/01 09:12:22;;;;;;;3.23;2.17;;;;;;;;;;5070506;28;20802;-69
2023/05/01 09:14:49;;;;;;;1.87;1.87;;;;;;;;;;5070046;28;20508;-71
2023/05/01 09:17:15;;;;;;;2.77;2.37;;;;;;;;;;5068500;28;20426;-71
2023/05/01 09:19:41;;;;;;;2.20;2.20;;;;;;;;;;5070330;28;20429;-72
2023/05/01 09:22:08;;;;;;;1.70;1.70;;;;;;;;;;5068878;28;20433;-70
2023/05/01 09:24:34;;;;;;;2.70;2.60;;;;;;;;;;5071051;28;20413;-68
2023/05/01 09:27:01;;;;;;;4.93;1.77;;;;;;;;;;5070418;28;20496;-68
2023/05/01 09:29:43;;;;;;;1.57;1.50;;;;;;;;;;5070196;28;20940;-67
2023/05/01 09:32:19;;;;;;;1.67;1.67;;;;;;;;;;5070821;28;20429;-67
2023/05/01 09:34:46;;;;;;;1.40;1.40;;;;;;;;;;5069755;28;20441;-68
2023/05/01 09:37:32;;;;;;;1.70;1.70;;;;;;;;;;5067850;28;20426;-73
2023/05/01 09:40:05;;;;;;;1.90;1.00;;;;;;;;;;5069244;28;20437;-71
2023/05/01 09:42:31;;;;;;;1.37;1.37;;;;;;;;;;5069633;28;20425;-72
2023/05/01 09:44:58;;;;;;;12.90;2.00;;;;;;;;;;5070466;28;20471;-68
2023/05/01 09:47:27;;;;;;;1.30;1.30;;;;;;;;;;5070195;28;20977;-71
2023/05/01 09:49:54;;;;;;;1.80;1.70;;;;;;;;;;5069102;28;20432;-72
2023/05/01 09:52:20;;;;;;;1.10;1.10;;;;;;;;;;5070505;28;20417;-67
2023/05/01 09:54:46;;;;;;;2.73;1.03;;;;;;;;;;5070586;28;20449;-69
2023/05/01 09:57:12;;;;;;;1.27;1.27;;;;;;;;;;5069126;28;20463;-69
2023/05/01 09:59:38;;;;;;;1.20;1.20;;;;;;;;;;5067521;28;20437;-66
2023/05/01 10:02:04;;;;;;;1.50;1.50;;;;;;;;;;5068291;28;20417;-67
2023/05/01 10:04:31;;;;;;;1.10;1.10;;;;;;;;;;5070101;28;20417;-68
2023/05/01 10:06:58;;;;;;;1.07;1.07;;;;;;;;;;5069699;28;20568;-69
2023/05/01 10:09:27;;;;;;;1.23;1.23;;;;;;;;;;5068175;28;20434;-67
2023/05/01 10:11:56;;;;;;;2.57;2.30;;;;;;;;;;5069683;28;20445;-69
2023/05/01 10:14:26;;;;;;;16.53;10.50;;;;;;;;;;5067992;28;20433;-68
2023/05/01 10:16:52;;;;;;;16.50;8.40;;;;;;;;;;5069745;28;20441;-68
2023/05/01 10:19:19;;;;;;;3.60;3.40;;;;;;;;;;5067583;28;20430;-67
2023/05/01 10:21:45;;;;;;;2.00;2.00;;;;;;;;;;5068720;28;20504;-71
2023/05/01 10:24:13;;;;;;;1.97;1.97;;;;;;;;;;5069320;28;20908;-67
2023/05/01 10:26:40;;;;;;;0.90;0.90;;;;;;;;;;5069647;28;20568;-69
2023/05/01 10:29:06;;;;;;;0.90;0.90;;;;;;;;;;5068417;28;20491;-70
2023/05/01 10:31:32;;;;;;;0.80;0.80;;;;;;;;;;5062433;28;20917;-71
2023/05/01 10:34:01;;;;;;;1.47;1.40;;;;;;;;;;5067396;28;20799;-69
2023/05/01 10:36:31;;;;;;;1.10;1.10;;;;;;;;;;5068490;28;20429;-69
2023/05/01 10:38:57;;;;;;;1.10;1.10;;;;;;;;;;5068123;28;20429;-69
2023/05/01 10:41:42;;;;;;;1.20;1.20;;;;;;;;;;5068012;28;20430;-66
2023/05/01 10:44:19;;;;;;;1.20;1.20;;;;;;;;;;5066807;28;20933;-67
2023/05/01 10:46:45;;;;;;;1.90;1.43;;;;;;;;;;5065903;28;20481;-69
2023/05/01 10:49:11;;;;;;;1.17;1.17;;;;;;;;;;5067589;28;20524;-71
2023/05/01 10:51:57;;;;;;;1.67;1.03;;;;;;;;;;5068487;28;20544;-68
2023/05/01 10:54:24;;;;;;;1.90;1.50;;;;;;;;;;5068888;28;20421;-67
2023/05/01 10:56:50;;;;;;;1.37;1.37;;;;;;;;;;5068515;28;20429;-67
2023/05/01 10:59:16;;;;;;;1.57;1.57;;;;;;;;;;5068297;28;20491;-66
2023/05/01 11:01:44;;;;;;;1.17;1.17;;;;;;;;;;5068696;28;20469;-67
2023/05/01 11:04:20;;;;;;;1.20;1.20;;;;;;;;;;5068368;28;20421;-67
2023/05/01 11:07:06;;;;;;;1.47;1.47;;;;;;;;;;5069372;28;20602;-71
2023/05/01 11:09:39;;;;;;;1.40;1.40;;;;;;;;;;5068414;28;20432;-66
2023/05/01 11:12:06;;;;;;;1.20;1.20;;;;;;;;;;5067614;28;20440;-68
2023/05/01 11:14:51;;;;;;;1.40;1.40;;;;;;;;;;5069233;28;20441;-66
2023/05/01 11:17:35;;;;;;;2.87;1.70;;;;;;;;;;5061512;28;20441;-67
2023/05/01 11:20:02;;;;;;;1.30;1.30;;;;;;;;;;5068211;28;20489;-67
2023/05/01 11:22:28;;;;;;;1.50;1.50;;;;;;;;;;5073121;28;21005;-68
2023/05/01 11:24:54;;;;;;;1.70;1.70;;;;;;;;;;5072658;28;20449;-68
2023/05/01 11:27:21;;;;;;;3.50;3.20;;;;;;;;;;5072627;28;20508;-69
2023/05/01 11:29:49;;;;;;;1.50;1.50;;;;;;;;;;5068737;28;20960;-67
2023/05/01 11:32:19;;;;;;;2.03;2.03;;;;;;;;;;5068568;28;20413;-67
2023/05/01 11:34:45;;;;;;;1.67;1.67;;;;;;;;;;5071425;28;20496;-66
2023/05/01 11:37:12;;;;;;;2.57;2.47;;;;;;;;;;5068301;28;20437;-65
2023/05/01 11:39:38;;;;;;;1.70;1.70;;;;;;;;;;5060256;28;20446;-66
2023/05/01 11:42:10;;;;;;;1.70;1.70;;;;;;;;;;5063360;28;20448;-66
2023/05/01 11:44:37;;;;;;;2.27;2.27;;;;;;;;;;5071402;28;20457;-67
2023/05/01 11:47:06;;;;;;;2.23;2.17;;;;;;;;;;5063945;28;20481;-68
2023/05/01 11:49:32;;;;;;;1.87;1.87;;;;;;;;;;5070814;28;20481;-68
2023/05/01 11:51:58;;;;;;;3.30;2.47;;;;;;;;;;5071207;28;20767;-69
2023/05/01 11:54:25;;;;;;;2.00;1.90;;;;;;;;;;5070660;28;20525;-67
2023/05/01 11:57:01;;;;;;;2.90;1.60;;;;;;;;;;5069967;28;20524;-66
2023/05/01 11:59:27;;;;;;;3.30;3.20;;;;;;;;;;5068132;28;20453;-67
2023/05/01 12:01:54;;;;;;;2.23;2.20;;;;;;;;;;5069454;28;20441;-68
2023/05/01 12:04:25;;;;;;;4.33;1.80;;;;;;;;;;5069570;28;20444;-71
2023/05/01 12:06:51;;;;;;;1.80;1.80;;;;;;;;;;5063111;28;20481;-67
2023/05/01 12:09:24;;;;;;;3.13;2.47;;;;;;;;;;5069909;28;20935;-67
2023/05/01 12:11:53;;;;;;;2.10;2.10;;;;;;;;;;5072062;28;20516;-67
2023/05/01 12:14:23;;;;;;;2.83;2.80;;;;;;;;;;5072653;28;20417;-67
2023/05/01 12:16:49;;;;;;;2.43;2.33;;;;;;;;;;5072122;28;20433;-66
2023/05/01 12:19:16;;;;;;;1.90;1.80;;;;;;;;;;5072012;28;20817;-67
2023/05/01 12:21:42;;;;;;;4.67;1.70;;;;;;;;;;5072033;28;21126;-67
2023/05/01 12:24:08;;;;;;;1.67;1.60;;;;;;;;;;5072361;28;20421;-66
2023/05/01 12:26:34;;;;;;;2.27;2.27;;;;;;;;;;5072357;28;20556;-66
2023/05/01 12:29:01;;;;;;;2.10;2.00;;;;;;;;;;5070730;28;20461;-66
2023/05/01 12:31:28;;;;;;;2.80;2.70;;;;;;;;;;5070507;28;20460;-67
2023/05/01 12:33:55;;;;;;;2.20;2.20;;;;;;;;;;5072091;28;20525;-67
2023/05/01 12:36:26;;;;;;;2.23;2.00;;;;;;;;;;5072298;28;20449;-70
2023/05/01 12:39:18;;;;;;;2.63;2.63;;;;;;;;;;5071923;28;20480;-67
2023/05/01 12:41:50;;;;;;;2.47;2.47;;;;;;;;;;5070566;28;20434;-67
2023/05/01 12:44:22;;;;;;;2.57;2.57;;;;;;;;;;5071925;28;20520;-69
2023/05/01 12:47:02;;;;;;;2.00;2.00;;;;;;;;;;5070502;28;20848;-67
2023/05/01 12:49:28;;;;;;;2.20;2.13;;;;;;;;;;5071268;28;20437;-67
2023/05/01 12:51:55;;;;;;;2.80;2.70;;;;;;;;;;5070325;28;20454;-68
2023/05/01 12:54:28;;;;;;;1.93;1.83;;;;;;;;;;5058670;28;20445;-68
2023/05/01 12:57:04;;;;;;;2.90;2.80;;;;;;;;;;5066051;28;20429;-68
2023/05/01 12:59:30;;;;;;;2.70;2.50;;;;;;;;;;5069858;28;20425;-67
2023/05/01 13:02:03;;;;;;;4.00;3.83;;;;;;;;;;5070910;28;20429;-69
2023/05/01 13:04:30;;;;;;;2.27;2.27;;;;;;;;;;5071578;28;20417;-69
2023/05/01 13:06:56;;;;;;;3.47;2.83;;;;;;;;;;5071300;28;20635;-69
2023/05/01 13:09:23;;;;;;;3.50;3.30;;;;;;;;;;5070244;28;20523;-67
2023/05/01 13:11:56;;;;;;;2.77;2.67;;;;;;;;;;5071268;28;20958;-67
2023/05/01 13:14:22;;;;;;;3.20;3.00;;;;;;;;;;5071190;28;20421;-67
2023/05/01 13:16:49;;;;;;;2.30;2.30;;;;;;;;;;5071137;28;20410;-67
2023/05/01 13:19:25;;;;;;;2.73;2.53;;;;;;;;;;5070834;28;20905;-67
2023/05/01 13:21:51;;;;;;;2.67;2.67;;;;;;;;;;5070872;28;20853;-68
2023/05/01 13:24:17;;;;;;;2.70;2.60;;;;;;;;;;5071327;28;20979;-68
2023/05/01 13:26:44;;;;;;;3.67;3.37;;;;;;;;;;5071023;28;20834;-67
2023/05/01 13:29:13;;;;;;;2.67;2.47;;;;;;;;;;5068941;28;20463;-67
2023/05/01 13:31:43;;;;;;;2.23;2.23;;;;;;;;;;5066808;28;20441;-67
2023/05/01 13:34:09;;;;;;;3.07;2.67;;;;;;;;;;5067794;28;20433;-69
2023/05/01 13:36:35;;;;;;;2.77;2.67;;;;;;;;;;5067508;28;20974;-70
2023/05/01 13:39:01;;;;;;;2.92;2.83;;;;;;;;;;5057188;28;20449;-67
2023/05/01 13:41:28;;;;;;;2.30;2.30;;;;;;;;;;5062454;28;20183;-69
2023/05/01 13:43:55;;;;;;;2.50;2.30;;;;;;;;;;5070525;28;20600;-69
2023/05/01 13:46:22;;;;;;;2.20;2.20;;;;;;;;;;5069938;28;20503;-67
2023/05/01 13:48:48;;;;;;;2.13;2.03;;;;;;;;;;5070122;28;20457;-68
2023/05/01 13:51:19;;;;;;;2.10;2.10;;;;;;;;;;5069863;28;20429;-66
2023/05/01 13:53:45;;;;;;;2.47;2.27;;;;;;;;;;5070346;28;20978;-67
2023/05/01 13:56:15;;;;;;;2.33;2.23;;;;;;;;;;5069964;28;20421;-69
2023/05/01 13:58:41;;;;;;;2.50;2.50;;;;;;;;;;5069931;28;20429;-67
2023/05/01 14:01:14;;;;;;;2.60;2.50;;;;;;;;;;5069672;28;20413;-66
2023/05/01 14:03:41;;;;;;;3.07;2.90;;;;;;;;;;5070419;28;21507;-67
2023/05/01 14:06:20;;;;;;;2.87;2.47;;;;;;;;;;5070195;28;20409;-70
2023/05/01 14:08:47;;;;;;;1.90;1.90;;;;;;;;;;5070057;28;21708;-69
2023/05/01 14:11:13;;;;;;;2.70;2.60;;;;;;;;;;5069913;28;20421;-69
2023/05/01 14:13:40;;;;;;;2.73;2.30;;;;;;;;;;5070030;28;20437;-68
2023/05/01 14:16:10;;;;;;;3.10;3.10;;;;;;;;;;5069855;28;20414;-69
2023/05/01 14:18:43;;;;;;;2.40;2.33;;;;;;;;;;5070101;28;20425;-69
2023/05/01 14:21:09;;;;;;;2.37;2.17;;;;;;;;;;5069943;28;20420;-68
2023/05/01 14:23:35;;;;;;;2.10;2.10;;;;;;;;;;5067645;28;20426;-69
2023/05/01 14:26:02;;;;;;;2.37;2.27;;;;;;;;;;5068994;28;20464;-70
2023/05/01 14:28:29;;;;;;;2.30;2.30;;;;;;;;;;5067195;28;20892;-68
2023/05/01 14:30:55;;;;;;;2.30;2.20;;;;;;;;;;5066997;28;20440;-69
2023/05/01 14:33:21;;;;;;;2.50;2.50;;;;;;;;;;5069778;28;20430;-69
2023/05/01 14:35:48;;;;;;;2.60;2.50;;;;;;;;;;5070042;28;20939;-68
2023/05/01 14:38:15;;;;;;;2.80;2.60;;;;;;;;;;5069620;28;20426;-66
2023/05/01 14:40:41;;;;;;;1.77;1.77;;;;;;;;;;5068643;28;20476;-68
2023/05/01 14:43:09;;;;;;;2.47;2.47;;;;;;;;;;5067759;28;20434;-67
2023/05/01 14:45:44;;;;;;;8.80;2.30;;;;;;;;;;5069315;28;20469;-66